Time;durP1;ratioP1;P1;durP2;ratioP2;P2;SDS_P1;SDS_P2;PMS_P1;PMS_P2;Temp;Humidity;BMP_temperature;BMP_pressure;BME280_temperature;BME280_humidity;BME280_pressure;Samples;Min_cycle;Max_cycle;Signal;HPM_P1;HPM_P2
2022/07/15 00:00:00;;;;;;;3.38;1.15;;;10.60;99.90;;;;;;5034804;28;20020;-65
2022/07/15 00:02:28;;;;;;;2.17;0.95;;;10.70;99.90;;;;;;5026242;28;20038;-66
2022/07/15 00:04:55;;;;;;;3.90;1.30;;;10.80;99.90;;;;;;5018565;28;20018;-66
2022/07/15 00:07:22;;;;;;;3.53;1.20;;;10.80;99.90;;;;;;5020043;28;20015;-66
2022/07/15 00:12:35;;;;;;;2.85;1.05;;;10.80;99.90;;;;;;5019426;28;20021;-66
2022/07/15 00:15:03;;;;;;;4.15;1.38;;;10.90;99.90;;;;;;5035738;28;20025;-66
2022/07/15 00:17:30;;;;;;;2.95;1.15;;;11.10;99.90;;;;;;5024334;28;20074;-65
2022/07/15 00:19:57;;;;;;;2.53;1.00;;;11.10;99.90;;;;;;5032706;28;20018;-66
2022/07/15 00:22:24;;;;;;;3.28;0.77;;;11.10;99.90;;;;;;5022281;28;20014;-66
2022/07/15 00:24:52;;;;;;;3.45;1.05;;;11.20;99.90;;;;;;5033969;28;20041;-66
2022/07/15 00:27:19;;;;;;;3.88;0.75;;;11.50;99.90;;;;;;5028936;28;20030;-66
2022/07/15 00:29:46;;;;;;;2.00;0.95;;;11.20;99.90;;;;;;5024457;28;20034;-65
2022/07/15 00:32:14;;;;;;;5.40;1.65;;;11.20;99.90;;;;;;5018417;28;20065;-65
2022/07/15 00:34:41;;;;;;;2.28;0.93;;;11.40;99.90;;;;;;5030136;28;20103;-65
2022/07/15 00:37:08;;;;;;;4.35;0.88;;;11.30;99.90;;;;;;5029749;28;20033;-66
2022/07/15 00:39:36;;;;;;;2.17;1.10;;;11.40;99.90;;;;;;5028798;28;20031;-65
2022/07/15 00:42:04;;;;;;;3.90;0.70;;;11.60;99.90;;;;;;5026404;28;20021;-65
2022/07/15 00:44:31;;;;;;;2.35;1.35;;;11.60;99.90;;;;;;5020326;28;20056;-64
2022/07/15 00:47:00;;;;;;;3.63;1.35;;;11.80;99.90;;;;;;5034913;28;20049;-65
2022/07/15 00:49:27;;;;;;;2.42;0.63;;;11.70;99.90;;;;;;5024211;28;20026;-65
2022/07/15 00:51:59;;;;;;;3.30;1.70;;;11.70;99.90;;;;;;5023275;28;20005;-66
2022/07/15 00:54:27;;;;;;;2.83;1.00;;;11.90;99.90;;;;;;5025480;28;20042;-65
2022/07/15 00:56:58;;;;;;;3.20;0.88;;;11.90;99.90;;;;;;5026918;28;20029;-65
2022/07/15 00:59:32;;;;;;;3.33;1.30;;;11.90;99.90;;;;;;5032054;28;20011;-65
2022/07/15 01:01:59;;;;;;;1.45;0.90;;;11.80;99.90;;;;;;5028831;28;20101;-66
2022/07/15 01:04:27;;;;;;;4.38;0.98;;;11.90;99.90;;;;;;5034690;28;20014;-67
2022/07/15 01:06:55;;;;;;;2.60;1.15;;;12.10;99.90;;;;;;5023670;28;20011;-66
2022/07/15 01:09:22;;;;;;;4.28;1.33;;;12.10;99.90;;;;;;5020705;28;20046;-66
2022/07/15 01:11:50;;;;;;;2.85;0.93;;;12.10;99.90;;;;;;5035159;28;20022;-66
2022/07/15 01:14:18;;;;;;;2.05;0.90;;;12.30;99.90;;;;;;5037052;28;20010;-66
2022/07/15 01:16:45;;;;;;;2.35;0.93;;;12.40;99.90;;;;;;5031644;28;20038;-66
2022/07/15 01:19:12;;;;;;;1.98;1.13;;;12.40;99.90;;;;;;5031788;28;20048;-66
2022/07/15 01:21:39;;;;;;;3.30;0.70;;;12.40;99.90;;;;;;5022011;28;20037;-66
2022/07/15 01:24:07;;;;;;;1.92;1.10;;;12.50;99.90;;;;;;5031638;28;20033;-66
2022/07/15 01:26:34;;;;;;;3.55;0.75;;;12.60;99.90;;;;;;5029968;28;20030;-66
2022/07/15 01:29:01;;;;;;;2.65;1.00;;;12.50;99.90;;;;;;5017995;28;20030;-66
2022/07/15 01:31:28;;;;;;;4.95;1.20;;;12.80;99.90;;;;;;5025852;28;20033;-66
2022/07/15 01:33:56;;;;;;;3.85;1.10;;;12.80;99.90;;;;;;5036966;28;20034;-66
2022/07/15 01:36:23;;;;;;;2.55;0.90;;;13.00;99.90;;;;;;5036394;28;20023;-66
2022/07/15 01:38:50;;;;;;;3.00;0.70;;;13.00;99.90;;;;;;5037424;28;20044;-66
2022/07/15 01:41:17;;;;;;;2.25;0.95;;;12.90;99.90;;;;;;5031774;28;20022;-66
2022/07/15 01:43:45;;;;;;;2.35;0.85;;;13.20;99.90;;;;;;5023287;28;20022;-65
2022/07/15 01:46:12;;;;;;;2.78;1.10;;;13.30;99.90;;;;;;5032342;28;20030;-68
2022/07/15 01:51:25;;;;;;;1.92;0.60;;;13.50;99.90;;;;;;5033051;28;20033;-66
2022/07/15 01:53:53;;;;;;;2.92;0.70;;;13.40;99.90;;;;;;5035626;28;20014;-65
2022/07/15 01:56:20;;;;;;;1.67;0.65;;;13.40;99.90;;;;;;5027815;28;20031;-66
2022/07/15 01:58:47;;;;;;;3.03;0.50;;;13.60;99.90;;;;;;5026987;28;20073;-66
2022/07/15 02:01:17;;;;;;;2.42;0.40;;;13.90;99.90;;;;;;5036985;28;20018;-66
2022/07/15 02:03:45;;;;;;;2.70;0.80;;;13.90;99.90;;;;;;5029341;28;20118;-66
2022/07/15 02:06:12;;;;;;;1.88;0.82;;;14.10;99.90;;;;;;5010974;28;20033;-67
2022/07/15 02:08:40;;;;;;;3.15;0.70;;;14.30;99.90;;;;;;5005595;28;20030;-67
2022/07/15 02:11:07;;;;;;;2.30;0.90;;;14.30;99.90;;;;;;5015873;28;20037;-66
2022/07/15 02:13:35;;;;;;;1.75;0.70;;;14.20;99.90;;;;;;5030682;28;20251;-66
2022/07/15 02:16:02;;;;;;;4.60;0.80;;;14.50;99.90;;;;;;5038648;28;20010;-66
2022/07/15 02:18:30;;;;;;;2.40;0.50;;;14.60;99.90;;;;;;5031239;28;20015;-66
2022/07/15 02:20:57;;;;;;;4.30;0.57;;;14.70;99.90;;;;;;5038942;28;20098;-66
2022/07/15 02:23:24;;;;;;;0.98;0.40;;;14.60;99.90;;;;;;5038658;28;20070;-66
2022/07/15 02:25:51;;;;;;;3.03;0.70;;;15.10;99.90;;;;;;5038291;28;20034;-66
2022/07/15 02:28:19;;;;;;;2.90;0.80;;;15.90;99.90;;;;;;5025639;28;20027;-66
2022/07/15 02:30:46;;;;;;;2.40;0.50;;;16.40;99.90;;;;;;5033948;28;20018;-68
2022/07/15 02:33:13;;;;;;;4.88;1.75;;;16.00;99.90;;;;;;5022348;28;20099;-67
2022/07/15 02:35:42;;;;;;;2.92;0.93;;;15.90;99.90;;;;;;5022770;28;20026;-65
2022/07/15 02:38:09;;;;;;;2.50;0.45;;;15.80;99.90;;;;;;5022032;28;20014;-65
2022/07/15 02:40:36;;;;;;;1.25;0.55;;;16.40;99.90;;;;;;5020678;28;20026;-64
2022/07/15 02:43:04;;;;;;;2.50;0.40;;;16.20;99.90;;;;;;5033574;28;20038;-65
2022/07/15 02:45:35;;;;;;;1.38;0.43;;;15.70;99.90;;;;;;5040370;28;20018;-65
2022/07/15 02:48:03;;;;;;;4.22;0.50;;;15.90;99.90;;;;;;5023660;28;20050;-65
2022/07/15 02:50:31;;;;;;;5.00;0.50;;;16.70;99.90;;;;;;5031136;28;20044;-66
2022/07/15 02:52:58;;;;;;;3.88;0.60;;;16.40;99.90;;;;;;5038645;28;20006;-66
2022/07/15 02:55:26;;;;;;;1.58;0.40;;;16.60;99.90;;;;;;5031391;28;20078;-66
2022/07/15 02:57:53;;;;;;;1.95;0.50;;;16.40;99.90;;;;;;5033555;28;20010;-66
2022/07/15 03:00:21;;;;;;;1.77;0.50;;;16.30;99.90;;;;;;5039930;28;20014;-66
2022/07/15 03:02:49;;;;;;;4.05;0.50;;;16.70;99.90;;;;;;5026078;28;20014;-66
2022/07/15 03:05:17;;;;;;;2.38;0.80;;;16.50;99.90;;;;;;5020220;28;20030;-65
2022/07/15 03:07:46;;;;;;;4.25;0.60;;;16.00;99.90;;;;;;5032856;28;20034;-65
2022/07/15 03:10:13;;;;;;;2.55;0.60;;;16.40;99.90;;;;;;5038834;28;20022;-66
2022/07/15 03:12:41;;;;;;;5.43;0.80;;;16.20;99.90;;;;;;5025551;28;20042;-65
2022/07/15 03:15:10;;;;;;;3.20;0.68;;;16.20;99.90;;;;;;5020115;28;20010;-66
2022/07/15 03:17:37;;;;;;;3.05;1.02;;;16.30;99.90;;;;;;5031663;28;20014;-66
2022/07/15 03:20:05;;;;;;;2.05;0.50;;;16.90;99.90;;;;;;5039383;28;20034;-66
2022/07/15 03:22:32;;;;;;;2.80;0.60;;;16.70;99.90;;;;;;5037571;28;20045;-66
2022/07/15 03:25:00;;;;;;;9.45;0.90;;;17.30;99.90;;;;;;5039338;28;20002;-66
2022/07/15 03:27:27;;;;;;;2.80;0.60;;;16.70;99.90;;;;;;5025489;28;20041;-66
2022/07/15 03:29:55;;;;;;;2.58;0.50;;;16.60;99.90;;;;;;5019672;28;20086;-66
2022/07/15 03:32:22;;;;;;;2.38;0.50;;;16.20;99.90;;;;;;5020302;28;20006;-66
2022/07/15 03:34:49;;;;;;;3.75;0.50;;;15.70;99.90;;;;;;5019691;28;20014;-66
2022/07/15 03:37:17;;;;;;;3.00;0.50;;;15.80;99.90;;;;;;5028406;28;20098;-66
2022/07/15 03:39:45;;;;;;;2.97;0.45;;;16.40;99.90;;;;;;5039144;28;20014;-66
2022/07/15 03:42:12;;;;;;;2.30;0.60;;;16.20;99.90;;;;;;5037888;28;20014;-66
2022/07/15 03:44:39;;;;;;;5.28;0.50;;;16.10;99.90;;;;;;5033615;28;20010;-66
2022/07/15 03:47:07;;;;;;;2.10;0.60;;;15.80;99.90;;;;;;5038102;28;20094;-66
2022/07/15 03:49:34;;;;;;;3.10;0.45;;;16.10;99.90;;;;;;5032038;28;20022;-66
2022/07/15 03:52:01;;;;;;;2.55;0.68;;;16.70;99.80;;;;;;5019344;28;20014;-66
2022/07/15 03:54:29;;;;;;;4.45;0.40;;;16.40;99.90;;;;;;5037349;28;20060;-66
2022/07/15 03:56:59;;;;;;;1.20;0.47;;;17.40;99.70;;;;;;5036520;28;20065;-66
2022/07/15 03:59:27;;;;;;;1.63;0.30;;;16.10;99.60;;;;;;5038779;28;20066;-66
2022/07/15 04:01:54;;;;;;;1.67;0.50;;;16.80;99.70;;;;;;5030346;28;20003;-66
2022/07/15 04:04:22;;;;;;;2.80;0.40;;;17.20;99.00;;;;;;5019023;28;20037;-66
2022/07/15 04:06:49;;;;;;;3.08;0.50;;;17.40;99.90;;;;;;5024722;28;20014;-66
2022/07/15 04:09:16;;;;;;;2.92;0.63;;;16.50;98.60;;;;;;5029444;28;20022;-65
2022/07/15 04:11:43;;;;;;;2.33;0.43;;;16.30;99.70;;;;;;5022141;28;20017;-65
2022/07/15 04:14:13;;;;;;;3.20;0.40;;;15.80;99.30;;;;;;5034783;28;20014;-66
2022/07/15 04:16:41;;;;;;;3.72;0.60;;;16.10;99.90;;;;;;5037289;28;20006;-66
2022/07/15 04:19:08;;;;;;;0.75;0.47;;;16.00;99.60;;;;;;5029246;28;20017;-66
2022/07/15 04:21:35;;;;;;;4.55;0.50;;;15.70;99.70;;;;;;5019286;28;20707;-65
2022/07/15 04:24:03;;;;;;;4.32;0.65;;;15.70;99.90;;;;;;5028494;28;20014;-66
2022/07/15 04:26:30;;;;;;;2.50;0.93;;;16.20;99.80;;;;;;5022615;28;20021;-65
2022/07/15 04:28:57;;;;;;;3.10;0.50;;;15.80;99.90;;;;;;5035809;28;20044;-65
2022/07/15 04:31:25;;;;;;;5.75;1.33;;;16.20;99.90;;;;;;5021153;28;20022;-65
2022/07/15 04:33:52;;;;;;;5.00;0.80;;;16.10;99.20;;;;;;5038122;28;20022;-65
2022/07/15 04:36:19;;;;;;;1.85;0.30;;;15.60;99.90;;;;;;5026716;28;20040;-68
2022/07/15 04:38:47;;;;;;;2.88;0.40;;;15.90;99.90;;;;;;5032285;28;20115;-66
2022/07/15 04:41:14;;;;;;;4.22;0.80;;;15.70;99.90;;;;;;5031948;28;20037;-66
2022/07/15 04:43:41;;;;;;;2.17;0.68;;;15.90;99.90;;;;;;5025327;28;20160;-66
2022/07/15 04:46:08;;;;;;;3.83;0.68;;;15.90;99.90;;;;;;5032059;28;20066;-66
2022/07/15 04:51:21;;;;;;;2.63;0.50;;;15.80;99.90;;;;;;5030933;28;20037;-66
2022/07/15 04:53:49;;;;;;;1.75;0.50;;;15.70;99.90;;;;;;5029129;28;20014;-66
2022/07/15 04:56:16;;;;;;;5.85;0.45;;;15.70;99.90;;;;;;5020932;28;20013;-66
2022/07/15 04:58:43;;;;;;;1.67;0.40;;;15.40;99.90;;;;;;5024283;28;20037;-66
2022/07/15 05:01:12;;;;;;;3.80;0.95;;;15.40;99.90;;;;;;5032486;28;20026;-66
2022/07/15 05:03:39;;;;;;;5.00;0.40;;;15.30;99.90;;;;;;5028046;28;20017;-66
2022/07/15 05:06:06;;;;;;;4.80;0.45;;;15.30;99.90;;;;;;5035231;28;20018;-67
2022/07/15 05:08:34;;;;;;;1.90;0.35;;;15.30;99.90;;;;;;5035414;28;20014;-66
2022/07/15 05:11:04;;;;;;;1.95;0.30;;;15.30;99.90;;;;;;5033192;28;20065;-66
2022/07/15 05:13:32;;;;;;;6.25;0.80;;;15.20;99.90;;;;;;5031777;28;20082;-66
2022/07/15 05:15:59;;;;;;;1.95;0.40;;;15.10;99.90;;;;;;5036518;28;20067;-66
2022/07/15 05:18:26;;;;;;;5.25;0.47;;;15.10;99.90;;;;;;5025491;28;20018;-67
2022/07/15 05:20:53;;;;;;;4.57;0.60;;;15.10;99.90;;;;;;5029261;28;20014;-67
2022/07/15 05:23:21;;;;;;;2.30;0.75;;;15.10;99.90;;;;;;5029597;28;20017;-67
2022/07/15 05:25:48;;;;;;;3.17;0.45;;;15.00;99.90;;;;;;5032905;28;20024;-66
2022/07/15 05:28:16;;;;;;;5.03;0.70;;;15.00;99.90;;;;;;5021854;28;20082;-66
2022/07/15 05:30:43;;;;;;;2.65;0.60;;;15.00;99.90;;;;;;5032340;28;20040;-66
2022/07/15 05:33:10;;;;;;;3.58;0.32;;;14.90;99.90;;;;;;5031176;28;20045;-66
2022/07/15 05:35:37;;;;;;;3.38;0.50;;;14.90;99.90;;;;;;5036729;28;20002;-67
2022/07/15 05:38:04;;;;;;;6.25;0.80;;;15.00;99.90;;;;;;5033840;28;20037;-66
2022/07/15 05:40:32;;;;;;;2.00;0.75;;;15.00;99.90;;;;;;5032873;28;20034;-66
2022/07/15 05:42:59;;;;;;;5.60;0.50;;;15.00;99.90;;;;;;5031755;28;20018;-67
2022/07/15 05:45:26;;;;;;;6.68;0.60;;;15.00;99.90;;;;;;5037696;28;20431;-66
2022/07/15 05:47:54;;;;;;;3.22;0.60;;;15.00;99.90;;;;;;5024422;28;20039;-66
2022/07/15 05:50:21;;;;;;;2.65;0.50;;;15.00;99.90;;;;;;5033898;28;20103;-66
2022/07/15 05:52:49;;;;;;;3.58;0.50;;;15.00;99.70;;;;;;5029645;28;20002;-66
2022/07/15 05:55:16;;;;;;;2.92;0.55;;;15.00;99.80;;;;;;5034842;28;20006;-66
2022/07/15 05:57:43;;;;;;;1.63;0.30;;;14.90;99.90;;;;;;5026959;28;20057;-67
2022/07/15 06:00:11;;;;;;;5.20;0.65;;;14.80;99.90;;;;;;5030927;28;20034;-67
2022/07/15 06:02:38;;;;;;;4.72;0.30;;;14.80;99.90;;;;;;5033147;28;20034;-67
2022/07/15 06:05:06;;;;;;;7.95;0.90;;;14.60;99.90;;;;;;5029609;28;20042;-67
2022/07/15 06:07:35;;;;;;;3.83;0.38;;;14.70;99.90;;;;;;5034775;28;20038;-67
2022/07/15 06:10:03;;;;;;;2.20;0.32;;;14.50;99.90;;;;;;5026350;28;20089;-67
2022/07/15 06:12:31;;;;;;;3.28;0.52;;;14.40;99.90;;;;;;5032229;28;20074;-67
2022/07/15 06:14:58;;;;;;;1.75;0.60;;;14.10;99.90;;;;;;5031295;28;20041;-66
2022/07/15 06:17:25;;;;;;;2.33;0.80;;;14.00;99.90;;;;;;5026741;28;20060;-67
2022/07/15 06:19:52;;;;;;;3.67;0.73;;;14.00;99.90;;;;;;5037790;28;20021;-67
2022/07/15 06:22:20;;;;;;;2.67;0.70;;;13.90;99.90;;;;;;5023357;28;20026;-67
2022/07/15 06:24:47;;;;;;;2.25;0.50;;;13.90;99.90;;;;;;5023353;28;20011;-67
2022/07/15 06:27:14;;;;;;;2.08;0.55;;;13.90;99.90;;;;;;5026297;28;20049;-67
2022/07/15 06:29:41;;;;;;;2.72;0.73;;;14.00;99.90;;;;;;5035790;28;20030;-66
2022/07/15 06:32:11;;;;;;;2.45;0.88;;;13.90;99.90;;;;;;5034216;28;20040;-66
2022/07/15 06:34:39;;;;;;;2.30;0.70;;;13.80;99.90;;;;;;5031593;28;20036;-66
2022/07/15 06:37:06;;;;;;;5.88;0.90;;;13.60;99.90;;;;;;5032750;28;20014;-66
2022/07/15 06:39:33;;;;;;;3.38;0.82;;;13.50;99.90;;;;;;5032197;28;20036;-66
2022/07/15 06:42:01;;;;;;;2.78;1.45;;;13.40;99.90;;;;;;5031986;28;20065;-66
2022/07/15 06:44:28;;;;;;;4.60;1.10;;;13.30;99.90;;;;;;5031912;28;20028;-66
2022/07/15 06:46:56;;;;;;;2.47;0.60;;;13.20;99.90;;;;;;5029364;28;20729;-67
2022/07/15 06:49:23;;;;;;;5.25;0.82;;;13.10;99.90;;;;;;5029995;28;20072;-66
2022/07/15 06:51:51;;;;;;;4.70;0.95;;;13.00;99.90;;;;;;5036907;28;20102;-66
2022/07/15 06:54:19;;;;;;;5.63;0.65;;;13.00;99.90;;;;;;5035276;28;20036;-66
2022/07/15 06:56:46;;;;;;;4.38;0.70;;;12.90;99.90;;;;;;5034229;28;20021;-66
2022/07/15 06:59:14;;;;;;;3.65;1.10;;;12.90;99.90;;;;;;5031366;28;20044;-66
2022/07/15 07:01:41;;;;;;;4.90;0.93;;;12.80;99.90;;;;;;5034949;28;20069;-66
2022/07/15 07:04:09;;;;;;;5.90;1.20;;;12.70;99.90;;;;;;5033751;28;20037;-66
2022/07/15 07:06:36;;;;;;;2.30;0.90;;;12.70;99.90;;;;;;5034254;28;20042;-67
2022/07/15 07:09:04;;;;;;;7.70;1.17;;;12.60;99.90;;;;;;5034507;28;20039;-66
2022/07/15 07:11:32;;;;;;;4.50;1.40;;;12.50;99.90;;;;;;5027888;28;20026;-67
2022/07/15 07:14:00;;;;;;;5.70;1.40;;;12.50;99.90;;;;;;5027872;28;20022;-66
2022/07/15 07:16:27;;;;;;;3.75;1.20;;;12.40;99.90;;;;;;5032746;28;20010;-67
2022/07/15 07:18:54;;;;;;;3.72;1.55;;;12.30;99.90;;;;;;5036447;28;20042;-66
2022/07/15 07:21:22;;;;;;;4.43;1.20;;;12.30;99.90;;;;;;5036763;28;20052;-66
2022/07/15 07:23:49;;;;;;;6.05;1.98;;;12.20;99.90;;;;;;5023400;28;20021;-65
2022/07/15 07:26:17;;;;;;;5.60;2.20;;;12.20;99.90;;;;;;5026956;28;20026;-67
2022/07/15 07:28:45;;;;;;;4.72;1.80;;;12.10;99.90;;;;;;5024897;28;20038;-66
2022/07/15 07:31:13;;;;;;;6.80;2.13;;;12.10;99.90;;;;;;5023472;28;20026;-66
2022/07/15 07:33:42;;;;;;;8.65;2.70;;;12.00;99.90;;;;;;5032334;28;20041;-66
2022/07/15 07:36:10;;;;;;;11.63;3.35;;;12.00;99.90;;;;;;5027520;28;20033;-66
2022/07/15 07:38:37;;;;;;;10.43;3.83;;;12.00;99.90;;;;;;5026831;28;20034;-67
2022/07/15 07:41:05;;;;;;;7.53;3.00;;;12.00;99.90;;;;;;5030132;28;20013;-67
2022/07/15 07:43:32;;;;;;;5.18;2.45;;;12.00;99.90;;;;;;5022775;28;20030;-68
2022/07/15 07:46:00;;;;;;;5.15;2.38;;;12.00;99.90;;;;;;5026761;28;20077;-67
2022/07/15 07:48:27;;;;;;;4.45;2.50;;;12.00;99.90;;;;;;5021463;28;20038;-68
2022/07/15 07:50:54;;;;;;;7.35;1.98;;;12.10;99.90;;;;;;5027951;28;20050;-68
2022/07/15 07:53:21;;;;;;;4.28;2.17;;;12.00;99.90;;;;;;5035427;28;20014;-67
2022/07/15 07:55:50;;;;;;;9.50;2.53;;;12.00;99.90;;;;;;5035030;28;20014;-68
2022/07/15 07:58:20;;;;;;;5.60;2.63;;;11.90;99.90;;;;;;5033055;28;20081;-67
2022/07/15 08:00:47;;;;;;;4.63;2.25;;;11.90;99.90;;;;;;5034915;28;20116;-65
2022/07/15 08:03:15;;;;;;;8.77;2.78;;;11.90;99.90;;;;;;5036186;28;20037;-66
2022/07/15 08:05:42;;;;;;;10.02;3.38;;;11.80;99.90;;;;;;5031925;28;20025;-67
2022/07/15 08:08:15;;;;;;;6.72;3.10;;;11.80;99.90;;;;;;5030883;28;20093;-66
2022/07/15 08:10:45;;;;;;;6.75;2.97;;;11.70;99.90;;;;;;5029917;28;20052;-67
2022/07/15 08:13:13;;;;;;;8.32;3.17;;;11.60;99.90;;;;;;5019046;28;20086;-68
2022/07/15 08:15:41;;;;;;;9.95;3.20;;;11.60;99.90;;;;;;5023001;28;20029;-69
2022/07/15 08:18:08;;;;;;;8.65;3.25;;;11.60;99.90;;;;;;5040582;28;20018;-69
2022/07/15 08:20:36;;;;;;;10.57;4.68;;;11.60;99.90;;;;;;5035105;28;20022;-68
2022/07/15 08:23:04;;;;;;;18.80;8.38;;;11.60;99.90;;;;;;5034753;28;20022;-67
2022/07/15 08:25:36;;;;;;;18.13;8.85;;;11.70;99.90;;;;;;5037298;28;20070;-67
2022/07/15 08:28:05;;;;;;;20.67;11.25;;;11.80;99.90;;;;;;5032443;28;20002;-67
2022/07/15 08:30:33;;;;;;;16.23;10.07;;;11.90;99.90;;;;;;5032188;28;20050;-68
2022/07/15 08:33:01;;;;;;;16.38;8.10;;;11.80;99.90;;;;;;5030283;28;20061;-67
2022/07/15 08:35:29;;;;;;;15.50;7.40;;;11.70;99.90;;;;;;5035719;28;20009;-67
2022/07/15 08:37:57;;;;;;;14.10;6.20;;;11.70;99.90;;;;;;5031364;28;20017;-67
2022/07/15 08:40:24;;;;;;;13.13;4.85;;;11.70;99.90;;;;;;5036418;28;20018;-67
2022/07/15 08:42:52;;;;;;;18.02;5.78;;;11.70;99.90;;;;;;5026321;28;20074;-68
2022/07/15 08:45:19;;;;;;;11.25;5.30;;;11.70;99.90;;;;;;5025507;28;20035;-68
2022/07/15 08:47:47;;;;;;;15.00;6.05;;;11.70;99.90;;;;;;5024993;28;20099;-68
2022/07/15 08:50:17;;;;;;;24.85;7.82;;;11.70;99.90;;;;;;5027782;28;20058;-67
2022/07/15 08:52:46;;;;;;;15.57;8.23;;;11.70;99.90;;;;;;5023249;28;20031;-68
2022/07/15 08:55:17;;;;;;;19.45;8.27;;;11.70;99.90;;;;;;5022452;28;20026;-67
2022/07/15 08:57:49;;;;;;;16.88;6.85;;;11.70;99.90;;;;;;5026545;28;21262;-68
2022/07/15 09:00:17;;;;;;;15.60;6.70;;;11.60;99.90;;;;;;5035081;28;20128;-68
2022/07/15 09:02:46;;;;;;;19.27;7.80;;;11.60;99.90;;;;;;5027073;28;20029;-68
2022/07/15 09:05:21;;;;;;;11.07;5.82;;;11.70;99.90;;;;;;5035191;28;20002;-67
2022/07/15 09:08:19;;;;;;;14.77;6.82;;;11.70;99.90;;;;;;5027777;28;20026;-68
2022/07/15 09:10:52;;;;;;;21.98;9.45;;;11.70;99.90;;;;;;5021562;28;20049;-67
2022/07/15 09:13:43;;;;;;;13.68;6.32;;;11.60;99.90;;;;;;5037562;28;20041;-68
2022/07/15 09:16:21;;;;;;;18.65;6.90;;;11.50;99.90;;;;;;5032047;28;20022;-68
2022/07/15 09:18:50;;;;;;;18.30;8.65;;;11.40;99.90;;;;;;5039119;28;20029;-68
2022/07/15 09:21:22;;;;;;;20.08;8.00;;;11.20;99.90;;;;;;5039707;28;20053;-67
2022/07/15 09:23:50;;;;;;;20.25;9.02;;;11.10;99.90;;;;;;5039918;28;20034;-68
2022/07/15 09:26:37;;;;;;;21.45;9.95;;;11.10;99.90;;;;;;5039265;28;20028;-68
2022/07/15 09:36:01;;;;;;;11.75;6.05;;;10.80;99.90;;;;;;5022442;28;20042;-67
2022/07/15 09:37:57;;;;;;;9.85;5.32;;;10.70;99.90;;;;;;5031380;28;20010;-67
2022/07/15 09:40:25;;;;;;;13.27;6.63;;;10.70;99.90;;;;;;5039758;28;20029;-67
2022/07/15 09:43:06;;;;;;;13.80;7.30;;;10.70;99.90;;;;;;5041360;28;20037;-67
2022/07/15 09:45:38;;;;;;;9.80;6.05;;;10.60;99.90;;;;;;5040885;28;20010;-68
2022/07/15 09:48:09;;;;;;;13.82;5.93;;;10.60;99.90;;;;;;5032800;28;20056;-67
2022/07/15 09:50:38;;;;;;;9.23;6.70;;;10.50;99.90;;;;;;5039529;28;20098;-67
2022/07/15 09:53:12;;;;;;;15.85;8.18;;;10.50;99.90;;;;;;5039383;28;20021;-67
2022/07/15 09:55:40;;;;;;;17.30;8.52;;;10.50;99.90;;;;;;5036305;28;20021;-68
2022/07/15 09:58:08;;;;;;;13.55;8.20;;;10.40;99.90;;;;;;5034048;28;20017;-67
2022/07/15 10:00:38;;;;;;;13.65;8.07;;;10.40;99.90;;;;;;5032170;28;20007;-67
2022/07/15 10:03:05;;;;;;;15.93;8.38;;;10.30;99.90;;;;;;5023090;28;20069;-66
2022/07/15 10:05:35;;;;;;;21.13;9.73;;;10.30;99.90;;;;;;5022962;28;20030;-66
2022/07/15 10:08:04;;;;;;;16.05;8.65;;;10.30;99.90;;;;;;5037962;28;20026;-66
2022/07/15 10:10:33;;;;;;;19.58;9.90;;;10.30;99.90;;;;;;5039583;28;20077;-67
2022/07/15 10:13:35;;;;;;;15.50;8.00;;;10.30;99.90;;;;;;5034690;28;20037;-67
2022/07/15 10:16:17;;;;;;;13.15;6.72;;;10.20;99.90;;;;;;5040563;28;20025;-67
2022/07/15 10:19:12;;;;;;;12.63;5.75;;;10.20;99.90;;;;;;5039358;28;20014;-67
2022/07/15 10:22:35;;;;;;;12.07;5.53;;;10.20;99.90;;;;;;5032077;28;20014;-66
2022/07/15 10:25:25;;;;;;;11.85;5.82;;;10.20;99.90;;;;;;4959082;28;20020;-67
2022/07/15 10:28:09;;;;;;;12.13;6.38;;;10.10;99.90;;;;;;4959540;28;20070;-66
2022/07/15 10:30:39;;;;;;;11.25;5.55;;;10.10;99.90;;;;;;5016395;28;20046;-67
2022/07/15 10:33:07;;;;;;;8.95;5.40;;;10.30;99.90;;;;;;5022432;28;20025;-67
2022/07/15 10:35:41;;;;;;;13.07;5.55;;;10.40;99.90;;;;;;5033916;28;20025;-67
2022/07/15 10:38:32;;;;;;;13.70;5.68;;;10.70;99.90;;;;;;5038176;28;20017;-67
2022/07/15 10:41:21;;;;;;;11.57;6.32;;;10.80;99.90;;;;;;5026023;28;20033;-67
2022/07/15 10:43:53;;;;;;;13.35;6.25;;;10.80;99.90;;;;;;5031292;28;20030;-67
2022/07/15 10:46:29;;;;;;;11.57;5.70;;;10.80;99.90;;;;;;5038789;28;20077;-67
2022/07/15 10:48:59;;;;;;;13.90;7.93;;;10.70;99.90;;;;;;5037193;28;20057;-68
2022/07/15 10:51:39;;;;;;;11.77;5.68;;;10.60;99.90;;;;;;5034156;28;20011;-67
2022/07/15 10:54:26;;;;;;;8.48;5.78;;;10.60;99.90;;;;;;5038059;28;20013;-67
2022/07/15 10:56:54;;;;;;;10.93;6.05;;;10.60;99.90;;;;;;5028515;28;20045;-67
2022/07/15 10:59:24;;;;;;;15.27;7.80;;;10.60;99.90;;;;;;5038839;28;20014;-67
2022/07/15 11:02:12;;;;;;;11.65;6.43;;;10.60;99.90;;;;;;5037834;28;20042;-67
2022/07/15 11:04:41;;;;;;;10.60;6.30;;;10.60;99.90;;;;;;5038996;28;20026;-67
2022/07/15 11:07:12;;;;;;;10.80;6.70;;;10.50;99.90;;;;;;5035159;28;20034;-67
2022/07/15 11:09:58;;;;;;;12.80;6.30;;;10.50;99.90;;;;;;5028237;28;20025;-67
2022/07/15 11:12:28;;;;;;;9.50;6.57;;;10.40;99.90;;;;;;5035787;28;20321;-67
2022/07/15 11:15:01;;;;;;;12.50;6.15;;;10.40;99.90;;;;;;5033372;28;20045;-67
2022/07/15 11:17:34;;;;;;;12.07;6.22;;;10.40;99.90;;;;;;5034347;28;20014;-67
2022/07/15 11:20:11;;;;;;;13.50;6.27;;;10.30;99.90;;;;;;5019517;28;20030;-69
2022/07/15 11:22:41;;;;;;;10.40;6.13;;;10.20;99.90;;;;;;5015762;28;20105;-67
2022/07/15 11:25:31;;;;;;;9.77;6.22;;;10.10;99.90;;;;;;5018721;28;20038;-67
2022/07/15 11:28:00;;;;;;;9.00;5.47;;;10.00;99.90;;;;;;5027858;28;20029;-67
2022/07/15 11:30:40;;;;;;;9.63;5.57;;;10.00;99.90;;;;;;5026660;28;20034;-67
2022/07/15 11:33:10;;;;;;;10.63;5.65;;;10.00;99.90;;;;;;5027994;28;20044;-67
2022/07/15 11:35:53;;;;;;;8.95;5.90;;;10.00;99.90;;;;;;5028526;28;20033;-68
2022/07/15 11:38:22;;;;;;;10.70;5.80;;;10.00;99.90;;;;;;5035432;28;20025;-68
2022/07/15 11:46:31;;;;;;;9.43;5.43;;;10.00;99.90;;;;;;5031581;28;20052;-68
2022/07/15 11:48:59;;;;;;;12.48;5.63;;;9.90;99.90;;;;;;5029664;28;20175;-68
2022/07/15 11:51:29;;;;;;;7.35;5.32;;;9.90;99.90;;;;;;5031206;28;20025;-68
2022/07/15 11:53:58;;;;;;;7.03;4.90;;;9.80;99.90;;;;;;5038275;28;20013;-67
2022/07/15 11:56:26;;;;;;;10.07;6.07;;;9.80;99.90;;;;;;5036289;28;20014;-68
2022/07/15 11:58:56;;;;;;;9.65;5.88;;;9.80;99.90;;;;;;5037058;28;20014;-68
2022/07/15 12:01:29;;;;;;;10.60;5.53;;;9.80;99.90;;;;;;5034384;28;20030;-67
2022/07/15 12:03:59;;;;;;;9.05;5.60;;;9.80;99.90;;;;;;5026623;28;20018;-68
2022/07/15 12:06:32;;;;;;;11.07;6.78;;;9.70;99.90;;;;;;5021850;28;20015;-68
2022/07/15 12:09:07;;;;;;;11.27;6.90;;;9.70;99.90;;;;;;5032968;28;20077;-66
2022/07/15 12:11:37;;;;;;;10.45;7.63;;;9.70;99.90;;;;;;5038298;28;20020;-66
2022/07/15 12:14:13;;;;;;;12.13;7.72;;;9.70;99.90;;;;;;5038608;28;20085;-66
2022/07/15 12:16:53;;;;;;;14.55;7.97;;;9.70;99.90;;;;;;5037780;28;20013;-66
2022/07/15 12:19:21;;;;;;;11.60;7.38;;;9.60;99.90;;;;;;5018151;28;20034;-66
2022/07/15 12:21:51;;;;;;;16.13;7.20;;;9.60;99.90;;;;;;5032259;28;20043;-67
2022/07/15 12:24:20;;;;;;;11.05;7.50;;;9.50;99.90;;;;;;5027767;28;20033;-67
2022/07/15 12:26:50;;;;;;;10.05;7.28;;;9.30;99.90;;;;;;5026045;28;20010;-67
2022/07/15 12:29:25;;;;;;;13.77;7.55;;;9.30;99.90;;;;;;5037868;28;20042;-68
2022/07/15 12:31:58;;;;;;;12.15;7.57;;;9.40;99.90;;;;;;5037972;28;20017;-66
2022/07/15 12:34:47;;;;;;;9.10;6.25;;;9.50;99.90;;;;;;5037812;28;20045;-66
2022/07/15 12:37:38;;;;;;;18.00;11.23;;;9.50;99.90;;;;;;5035933;28;20018;-66
2022/07/15 12:40:12;;;;;;;15.50;10.90;;;9.60;99.90;;;;;;5035195;28;20025;-66
2022/07/15 12:42:44;;;;;;;18.25;12.55;;;9.60;99.90;;;;;;5019099;28;20015;-67
2022/07/15 12:45:24;;;;;;;19.83;13.45;;;9.60;99.90;;;;;;5018243;28;20010;-67
2022/07/15 12:48:04;;;;;;;22.83;15.93;;;9.40;99.90;;;;;;5033352;28;20034;-66
2022/07/15 12:50:34;;;;;;;22.33;14.52;;;9.30;99.90;;;;;;5038138;28;20025;-67
2022/07/15 12:53:02;;;;;;;20.23;13.15;;;9.20;99.90;;;;;;5030010;28;20010;-67
2022/07/15 12:55:40;;;;;;;18.65;11.20;;;9.10;99.90;;;;;;5034227;28;20010;-66
2022/07/15 12:58:10;;;;;;;20.63;12.77;;;9.10;99.90;;;;;;5023352;28;20025;-66
2022/07/15 13:00:39;;;;;;;18.60;13.57;;;9.10;99.90;;;;;;5029067;28;20041;-66
2022/07/15 13:03:15;;;;;;;14.02;10.68;;;9.10;99.90;;;;;;5037278;28;20041;-66
2022/07/15 13:05:45;;;;;;;17.05;10.15;;;9.00;99.90;;;;;;5037363;28;20048;-66
2022/07/15 13:08:20;;;;;;;15.00;10.88;;;9.00;99.90;;;;;;5024047;28;20030;-66
2022/07/15 13:10:52;;;;;;;21.42;9.80;;;9.00;99.90;;;;;;5031562;28;20046;-66
2022/07/15 13:13:22;;;;;;;19.42;9.32;;;9.00;99.90;;;;;;5028226;28;20026;-66
2022/07/15 13:15:50;;;;;;;14.88;8.82;;;9.00;99.90;;;;;;5020895;28;20018;-67
2022/07/15 13:18:18;;;;;;;17.63;9.88;;;9.00;99.90;;;;;;5017956;28;20066;-66